sensor_id;sensor_type;location;lat;lon;timestamp;P1;durP1;ratioP1;P2;durP2;ratioP2
51872;SDS011;52863;52.504;13.480;2022-08-05T00:00:35;4.87;;;4.13;;
51872;SDS011;52863;52.504;13.480;2022-08-05T00:03:16;4.20;;;3.80;;
51872;SDS011;52863;52.504;13.480;2022-08-05T00:05:53;7.53;;;6.27;;
51872;SDS011;52863;52.504;13.480;2022-08-05T00:08:44;6.50;;;5.23;;
51872;SDS011;52863;52.504;13.480;2022-08-05T00:11:24;6.57;;;3.90;;
51872;SDS011;52863;52.504;13.480;2022-08-05T00:14:14;6.73;;;4.93;;
51872;SDS011;52863;52.504;13.480;2022-08-05T00:20:03;4.20;;;3.80;;
51872;SDS011;52863;52.504;13.480;2022-08-05T00:22:45;6.00;;;3.50;;
51872;SDS011;52863;52.504;13.480;2022-08-05T00:25:44;5.13;;;3.80;;
51872;SDS011;52863;52.504;13.480;2022-08-05T00:28:33;5.23;;;3.53;;
51872;SDS011;52863;52.504;13.480;2022-08-05T00:34:45;6.07;;;3.90;;
51872;SDS011;52863;52.504;13.480;2022-08-05T00:40:26;5.47;;;4.03;;
51872;SDS011;52863;52.504;13.480;2022-08-05T00:43:19;4.63;;;4.13;;
51872;SDS011;52863;52.504;13.480;2022-08-05T00:46:23;7.57;;;4.13;;
51872;SDS011;52863;52.504;13.480;2022-08-05T00:49:42;4.33;;;3.93;;
51872;SDS011;52863;52.504;13.480;2022-08-05T00:52:43;5.77;;;4.37;;
51872;SDS011;52863;52.504;13.480;2022-08-05T00:56:06;4.70;;;4.13;;
51872;SDS011;52863;52.504;13.480;2022-08-05T00:58:49;4.97;;;4.07;;
51872;SDS011;52863;52.504;13.480;2022-08-05T01:01:47;5.33;;;4.70;;
51872;SDS011;52863;52.504;13.480;2022-08-05T01:04:31;4.77;;;4.27;;
51872;SDS011;52863;52.504;13.480;2022-08-05T01:07:09;5.27;;;4.03;;
51872;SDS011;52863;52.504;13.480;2022-08-05T01:09:45;8.40;;;4.83;;
51872;SDS011;52863;52.504;13.480;2022-08-05T01:12:47;5.90;;;4.40;;
51872;SDS011;52863;52.504;13.480;2022-08-05T01:15:49;9.53;;;4.67;;
51872;SDS011;52863;52.504;13.480;2022-08-05T01:19:04;7.07;;;4.70;;
51872;SDS011;52863;52.504;13.480;2022-08-05T01:22:37;7.57;;;4.30;;
51872;SDS011;52863;52.504;13.480;2022-08-05T01:25:47;10.17;;;4.70;;
51872;SDS011;52863;52.504;13.480;2022-08-05T01:28:36;5.10;;;4.60;;
51872;SDS011;52863;52.504;13.480;2022-08-05T01:31:23;5.10;;;4.30;;
51872;SDS011;52863;52.504;13.480;2022-08-05T01:34:15;5.20;;;4.30;;
51872;SDS011;52863;52.504;13.480;2022-08-05T01:39:50;5.80;;;5.17;;
51872;SDS011;52863;52.504;13.480;2022-08-05T01:42:43;5.83;;;4.77;;
51872;SDS011;52863;52.504;13.480;2022-08-05T01:49:02;5.83;;;4.87;;
51872;SDS011;52863;52.504;13.480;2022-08-05T01:51:52;7.27;;;5.33;;
51872;SDS011;52863;52.504;13.480;2022-08-05T01:54:45;5.50;;;4.80;;
51872;SDS011;52863;52.504;13.480;2022-08-05T01:57:23;6.70;;;5.30;;
51872;SDS011;52863;52.504;13.480;2022-08-05T02:00:37;7.37;;;4.93;;
51872;SDS011;52863;52.504;13.480;2022-08-05T02:06:23;7.10;;;4.97;;
51872;SDS011;52863;52.504;13.480;2022-08-05T02:09:12;7.60;;;4.67;;
51872;SDS011;52863;52.504;13.480;2022-08-05T02:12:20;7.03;;;5.03;;
51872;SDS011;52863;52.504;13.480;2022-08-05T02:15:25;5.00;;;4.57;;
51872;SDS011;52863;52.504;13.480;2022-08-05T02:18:42;7.77;;;4.70;;
51872;SDS011;52863;52.504;13.480;2022-08-05T02:21:50;7.50;;;4.80;;
51872;SDS011;52863;52.504;13.480;2022-08-05T02:25:07;10.23;;;5.27;;
51872;SDS011;52863;52.504;13.480;2022-08-05T02:28:12;7.03;;;4.87;;
51872;SDS011;52863;52.504;13.480;2022-08-05T02:31:25;8.60;;;4.83;;
51872;SDS011;52863;52.504;13.480;2022-08-05T02:40:43;8.40;;;5.70;;
51872;SDS011;52863;52.504;13.480;2022-08-05T02:43:45;5.93;;;4.83;;
51872;SDS011;52863;52.504;13.480;2022-08-05T02:46:41;7.83;;;5.20;;
51872;SDS011;52863;52.504;13.480;2022-08-05T02:49:45;8.90;;;4.93;;
51872;SDS011;52863;52.504;13.480;2022-08-05T02:52:46;5.00;;;4.50;;
51872;SDS011;52863;52.504;13.480;2022-08-05T02:58:53;9.27;;;5.33;;
51872;SDS011;52863;52.504;13.480;2022-08-05T03:01:33;6.53;;;4.87;;
51872;SDS011;52863;52.504;13.480;2022-08-05T03:04:24;5.50;;;4.53;;
51872;SDS011;52863;52.504;13.480;2022-08-05T03:06:56;8.23;;;5.27;;
51872;SDS011;52863;52.504;13.480;2022-08-05T03:10:00;5.73;;;5.10;;
51872;SDS011;52863;52.504;13.480;2022-08-05T03:12:35;6.67;;;5.40;;
51872;SDS011;52863;52.504;13.480;2022-08-05T03:15:24;7.37;;;4.90;;
51872;SDS011;52863;52.504;13.480;2022-08-05T03:18:12;6.20;;;4.37;;
51872;SDS011;52863;52.504;13.480;2022-08-05T03:20:55;9.77;;;4.80;;
51872;SDS011;52863;52.504;13.480;2022-08-05T03:23:31;7.10;;;5.00;;
51872;SDS011;52863;52.504;13.480;2022-08-05T03:26:23;5.90;;;4.23;;
51872;SDS011;52863;52.504;13.480;2022-08-05T03:32:24;7.60;;;4.47;;
51872;SDS011;52863;52.504;13.480;2022-08-05T03:35:13;5.90;;;4.97;;
51872;SDS011;52863;52.504;13.480;2022-08-05T03:37:52;4.90;;;4.40;;
51872;SDS011;52863;52.504;13.480;2022-08-05T03:40:33;12.47;;;5.23;;
51872;SDS011;52863;52.504;13.480;2022-08-05T03:43:23;7.67;;;4.40;;
51872;SDS011;52863;52.504;13.480;2022-08-05T03:46:22;7.67;;;4.33;;
51872;SDS011;52863;52.504;13.480;2022-08-05T03:49:05;5.53;;;4.50;;
51872;SDS011;52863;52.504;13.480;2022-08-05T03:51:59;6.23;;;5.17;;
51872;SDS011;52863;52.504;13.480;2022-08-05T03:54:53;6.27;;;4.23;;
51872;SDS011;52863;52.504;13.480;2022-08-05T03:58:05;5.63;;;4.90;;
51872;SDS011;52863;52.504;13.480;2022-08-05T04:01:06;7.73;;;4.10;;
51872;SDS011;52863;52.504;13.480;2022-08-05T04:04:18;8.03;;;4.70;;
51872;SDS011;52863;52.504;13.480;2022-08-05T04:07:06;9.80;;;5.10;;
51872;SDS011;52863;52.504;13.480;2022-08-05T04:09:50;5.23;;;4.57;;
51872;SDS011;52863;52.504;13.480;2022-08-05T04:12:53;7.40;;;4.90;;
51872;SDS011;52863;52.504;13.480;2022-08-05T04:15:30;6.17;;;4.33;;
51872;SDS011;52863;52.504;13.480;2022-08-05T04:18:02;5.83;;;4.47;;
51872;SDS011;52863;52.504;13.480;2022-08-05T04:20:38;6.33;;;4.70;;
51872;SDS011;52863;52.504;13.480;2022-08-05T04:23:36;7.57;;;4.40;;
51872;SDS011;52863;52.504;13.480;2022-08-05T04:26:32;6.80;;;4.57;;
51872;SDS011;52863;52.504;13.480;2022-08-05T04:29:08;11.27;;;4.73;;
51872;SDS011;52863;52.504;13.480;2022-08-05T04:31:55;8.90;;;5.03;;
51872;SDS011;52863;52.504;13.480;2022-08-05T04:34:23;5.37;;;4.87;;
51872;SDS011;52863;52.504;13.480;2022-08-05T04:37:13;7.37;;;5.03;;
51872;SDS011;52863;52.504;13.480;2022-08-05T04:40:11;9.80;;;5.50;;
51872;SDS011;52863;52.504;13.480;2022-08-05T04:42:51;8.37;;;5.37;;
51872;SDS011;52863;52.504;13.480;2022-08-05T04:45:22;10.17;;;4.90;;
51872;SDS011;52863;52.504;13.480;2022-08-05T04:48:11;7.40;;;5.40;;
51872;SDS011;52863;52.504;13.480;2022-08-05T04:52:02;8.43;;;5.00;;
51872;SDS011;52863;52.504;13.480;2022-08-05T04:54:46;13.70;;;4.57;;
51872;SDS011;52863;52.504;13.480;2022-08-05T04:58:14;7.70;;;4.57;;
51872;SDS011;52863;52.504;13.480;2022-08-05T05:01:24;7.00;;;4.63;;
51872;SDS011;52863;52.504;13.480;2022-08-05T05:04:37;5.17;;;4.07;;
51872;SDS011;52863;52.504;13.480;2022-08-05T05:07:36;7.23;;;4.03;;
51872;SDS011;52863;52.504;13.480;2022-08-05T05:13:50;7.77;;;4.53;;
51872;SDS011;52863;52.504;13.480;2022-08-05T05:16:28;8.03;;;3.90;;
51872;SDS011;52863;52.504;13.480;2022-08-05T05:19:20;4.40;;;4.00;;
51872;SDS011;52863;52.504;13.480;2022-08-05T05:22:22;5.07;;;4.40;;
51872;SDS011;52863;52.504;13.480;2022-08-05T05:28:04;7.70;;;4.70;;
51872;SDS011;52863;52.504;13.480;2022-08-05T05:30:54;6.17;;;4.67;;
51872;SDS011;52863;52.504;13.480;2022-08-05T05:33:44;7.17;;;4.33;;
51872;SDS011;52863;52.504;13.480;2022-08-05T05:36:25;5.57;;;4.20;;
51872;SDS011;52863;52.504;13.480;2022-08-05T05:39:13;6.93;;;4.40;;
51872;SDS011;52863;52.504;13.480;2022-08-05T05:42:15;6.67;;;3.80;;
51872;SDS011;52863;52.504;13.480;2022-08-05T05:45:30;5.63;;;4.03;;
51872;SDS011;52863;52.504;13.480;2022-08-05T05:51:17;8.13;;;4.37;;
51872;SDS011;52863;52.504;13.480;2022-08-05T05:54:15;4.93;;;3.97;;
51872;SDS011;52863;52.504;13.480;2022-08-05T05:57:12;7.30;;;4.30;;
51872;SDS011;52863;52.504;13.480;2022-08-05T06:00:15;4.87;;;4.23;;
51872;SDS011;52863;52.504;13.480;2022-08-05T06:03:27;8.03;;;4.27;;
51872;SDS011;52863;52.504;13.480;2022-08-05T06:09:34;4.13;;;3.70;;
51872;SDS011;52863;52.504;13.480;2022-08-05T06:12:28;5.10;;;4.60;;
51872;SDS011;52863;52.504;13.480;2022-08-05T06:15:13;7.17;;;4.60;;
51872;SDS011;52863;52.504;13.480;2022-08-05T06:18:17;7.40;;;4.20;;
51872;SDS011;52863;52.504;13.480;2022-08-05T06:20:57;7.77;;;3.83;;
51872;SDS011;52863;52.504;13.480;2022-08-05T06:23:43;5.53;;;3.67;;
51872;SDS011;52863;52.504;13.480;2022-08-05T06:27:06;6.20;;;4.27;;
51872;SDS011;52863;52.504;13.480;2022-08-05T06:30:26;5.13;;;4.17;;
51872;SDS011;52863;52.504;13.480;2022-08-05T06:33:01;8.47;;;4.10;;
51872;SDS011;52863;52.504;13.480;2022-08-05T06:35:46;5.43;;;3.53;;
51872;SDS011;52863;52.504;13.480;2022-08-05T06:51:41;4.13;;;3.20;;
51872;SDS011;52863;52.504;13.480;2022-08-05T06:54:49;5.30;;;2.43;;
51872;SDS011;52863;52.504;13.480;2022-08-05T06:58:09;6.93;;;3.13;;
51872;SDS011;52863;52.504;13.480;2022-08-05T07:01:05;4.97;;;3.40;;
51872;SDS011;52863;52.504;13.480;2022-08-05T07:03:59;3.17;;;2.87;;
51872;SDS011;52863;52.504;13.480;2022-08-05T07:06:37;6.53;;;2.87;;
51872;SDS011;52863;52.504;13.480;2022-08-05T07:09:47;3.33;;;2.50;;
51872;SDS011;52863;52.504;13.480;2022-08-05T07:13:05;3.73;;;2.53;;
51872;SDS011;52863;52.504;13.480;2022-08-05T07:16:13;3.37;;;1.93;;
51872;SDS011;52863;52.504;13.480;2022-08-05T07:19:17;4.20;;;2.13;;
51872;SDS011;52863;52.504;13.480;2022-08-05T07:22:11;4.07;;;2.27;;
51872;SDS011;52863;52.504;13.480;2022-08-05T07:25:03;5.83;;;2.33;;
51872;SDS011;52863;52.504;13.480;2022-08-05T07:32:02;3.53;;;2.60;;
51872;SDS011;52863;52.504;13.480;2022-08-05T07:52:24;5.13;;;2.60;;
51872;SDS011;52863;52.504;13.480;2022-08-05T07:55:23;4.03;;;2.20;;
51872;SDS011;52863;52.504;13.480;2022-08-05T07:58:25;4.20;;;2.30;;
51872;SDS011;52863;52.504;13.480;2022-08-05T08:02:58;3.33;;;2.40;;
51872;SDS011;52863;52.504;13.480;2022-08-05T08:05:22;3.63;;;2.30;;
51872;SDS011;52863;52.504;13.480;2022-08-05T08:11:46;5.77;;;2.33;;
51872;SDS011;52863;52.504;13.480;2022-08-05T08:14:59;6.93;;;2.40;;
51872;SDS011;52863;52.504;13.480;2022-08-05T08:17:41;3.90;;;2.30;;
51872;SDS011;52863;52.504;13.480;2022-08-05T08:20:27;2.87;;;2.00;;
51872;SDS011;52863;52.504;13.480;2022-08-05T08:23:29;5.73;;;2.57;;
51872;SDS011;52863;52.504;13.480;2022-08-05T08:33:44;3.03;;;2.30;;
51872;SDS011;52863;52.504;13.480;2022-08-05T08:36:40;4.00;;;2.20;;
51872;SDS011;52863;52.504;13.480;2022-08-05T08:42:47;4.13;;;1.70;;
51872;SDS011;52863;52.504;13.480;2022-08-05T08:46:04;5.13;;;1.90;;
51872;SDS011;52863;52.504;13.480;2022-08-05T08:49:18;3.70;;;2.37;;
51872;SDS011;52863;52.504;13.480;2022-08-05T08:52:16;3.30;;;2.10;;
51872;SDS011;52863;52.504;13.480;2022-08-05T08:55:10;3.03;;;1.70;;
51872;SDS011;52863;52.504;13.480;2022-08-05T08:58:18;2.27;;;1.77;;
51872;SDS011;52863;52.504;13.480;2022-08-05T09:02:53;3.33;;;2.07;;
51872;SDS011;52863;52.504;13.480;2022-08-05T09:20:46;3.40;;;2.23;;
51872;SDS011;52863;52.504;13.480;2022-08-05T09:52:29;2.43;;;2.10;;
51872;SDS011;52863;52.504;13.480;2022-08-05T09:55:52;2.10;;;1.90;;
51872;SDS011;52863;52.504;13.480;2022-08-05T09:59:38;2.43;;;1.77;;
51872;SDS011;52863;52.504;13.480;2022-08-05T10:10:30;2.50;;;2.00;;
51872;SDS011;52863;52.504;13.480;2022-08-05T10:13:36;2.83;;;2.30;;
51872;SDS011;52863;52.504;13.480;2022-08-05T10:16:48;8.33;;;3.13;;
51872;SDS011;52863;52.504;13.480;2022-08-05T10:20:25;4.37;;;2.77;;
51872;SDS011;52863;52.504;13.480;2022-08-05T10:23:45;3.00;;;2.03;;
51872;SDS011;52863;52.504;13.480;2022-08-05T10:30:31;5.73;;;2.70;;
51872;SDS011;52863;52.504;13.480;2022-08-05T10:34:26;3.10;;;2.03;;
51872;SDS011;52863;52.504;13.480;2022-08-05T10:48:41;5.80;;;2.90;;
51872;SDS011;52863;52.504;13.480;2022-08-05T10:52:02;7.77;;;2.77;;
51872;SDS011;52863;52.504;13.480;2022-08-05T10:55:07;5.63;;;2.57;;
51872;SDS011;52863;52.504;13.480;2022-08-05T10:58:16;4.90;;;3.70;;
51872;SDS011;52863;52.504;13.480;2022-08-05T11:01:38;5.60;;;2.80;;
51872;SDS011;52863;52.504;13.480;2022-08-05T11:29:38;6.57;;;2.33;;
51872;SDS011;52863;52.504;13.480;2022-08-05T11:32:37;2.83;;;1.95;;
51872;SDS011;52863;52.504;13.480;2022-08-05T12:25:03;4.18;;;2.03;;
51872;SDS011;52863;52.504;13.480;2022-08-05T12:31:52;2.70;;;1.95;;
51872;SDS011;52863;52.504;13.480;2022-08-05T12:35:28;3.63;;;2.13;;
51872;SDS011;52863;52.504;13.480;2022-08-05T12:56:45;4.00;;;2.75;;
51872;SDS011;52863;52.504;13.480;2022-08-05T13:00:18;3.30;;;2.50;;
51872;SDS011;52863;52.504;13.480;2022-08-05T13:03:55;3.10;;;2.50;;
51872;SDS011;52863;52.504;13.480;2022-08-05T13:06:45;3.92;;;2.50;;
51872;SDS011;52863;52.504;13.480;2022-08-05T13:12:59;3.47;;;2.83;;
51872;SDS011;52863;52.504;13.480;2022-08-05T13:16:14;3.58;;;2.40;;
51872;SDS011;52863;52.504;13.480;2022-08-05T13:19:00;4.40;;;2.88;;
51872;SDS011;52863;52.504;13.480;2022-08-05T13:22:28;3.92;;;2.70;;
51872;SDS011;52863;52.504;13.480;2022-08-05T13:25:33;3.20;;;2.25;;
51872;SDS011;52863;52.504;13.480;2022-08-05T13:28:41;3.50;;;2.30;;
51872;SDS011;52863;52.504;13.480;2022-08-05T13:31:20;2.65;;;2.03;;
51872;SDS011;52863;52.504;13.480;2022-08-05T13:34:27;3.28;;;2.40;;
51872;SDS011;52863;52.504;13.480;2022-08-05T13:37:13;3.80;;;2.50;;
51872;SDS011;52863;52.504;13.480;2022-08-05T13:42:07;2.72;;;2.25;;
51872;SDS011;52863;52.504;13.480;2022-08-05T13:43:48;2.20;;;1.80;;
51872;SDS011;52863;52.504;13.480;2022-08-05T13:46:35;4.13;;;2.10;;
51872;SDS011;52863;52.504;13.480;2022-08-05T13:49:41;2.17;;;2.00;;
51872;SDS011;52863;52.504;13.480;2022-08-05T13:52:14;2.92;;;2.17;;
51872;SDS011;52863;52.504;13.480;2022-08-05T13:55:07;3.17;;;2.10;;
51872;SDS011;52863;52.504;13.480;2022-08-05T13:58:09;3.65;;;1.80;;
51872;SDS011;52863;52.504;13.480;2022-08-05T14:01:08;2.37;;;2.17;;
51872;SDS011;52863;52.504;13.480;2022-08-05T14:03:59;3.17;;;2.03;;
51872;SDS011;52863;52.504;13.480;2022-08-05T14:07:15;5.80;;;2.33;;
51872;SDS011;52863;52.504;13.480;2022-08-05T14:10:12;3.40;;;2.23;;
51872;SDS011;52863;52.504;13.480;2022-08-05T14:13:06;4.27;;;2.40;;
51872;SDS011;52863;52.504;13.480;2022-08-05T14:15:48;2.37;;;2.17;;
51872;SDS011;52863;52.504;13.480;2022-08-05T14:21:59;2.10;;;1.93;;
51872;SDS011;52863;52.504;13.480;2022-08-05T14:24:49;3.38;;;1.70;;
51872;SDS011;52863;52.504;13.480;2022-08-05T14:27:25;1.90;;;1.77;;
51872;SDS011;52863;52.504;13.480;2022-08-05T14:30:40;2.93;;;2.07;;
51872;SDS011;52863;52.504;13.480;2022-08-05T14:33:26;4.27;;;1.90;;
51872;SDS011;52863;52.504;13.480;2022-08-05T14:36:35;2.53;;;2.00;;
51872;SDS011;52863;52.504;13.480;2022-08-05T14:39:26;3.25;;;2.50;;
51872;SDS011;52863;52.504;13.480;2022-08-05T14:42:25;3.63;;;2.28;;
51872;SDS011;52863;52.504;13.480;2022-08-05T14:49:07;3.77;;;2.53;;
51872;SDS011;52863;52.504;13.480;2022-08-05T14:55:16;4.80;;;2.50;;
51872;SDS011;52863;52.504;13.480;2022-08-05T14:58:11;2.50;;;2.30;;
51872;SDS011;52863;52.504;13.480;2022-08-05T15:01:13;3.70;;;2.90;;
51872;SDS011;52863;52.504;13.480;2022-08-05T15:04:11;4.80;;;2.93;;
51872;SDS011;52863;52.504;13.480;2022-08-05T15:07:06;3.93;;;2.93;;
51872;SDS011;52863;52.504;13.480;2022-08-05T15:09:55;4.07;;;3.30;;
51872;SDS011;52863;52.504;13.480;2022-08-05T15:12:46;3.30;;;3.00;;
51872;SDS011;52863;52.504;13.480;2022-08-05T15:15:57;5.80;;;3.77;;
51872;SDS011;52863;52.504;13.480;2022-08-05T15:18:58;4.70;;;3.23;;
51872;SDS011;52863;52.504;13.480;2022-08-05T15:22:29;4.47;;;3.20;;
51872;SDS011;52863;52.504;13.480;2022-08-05T15:25:04;3.83;;;3.00;;
51872;SDS011;52863;52.504;13.480;2022-08-05T15:28:20;4.43;;;3.03;;
51872;SDS011;52863;52.504;13.480;2022-08-05T15:31:18;4.83;;;3.20;;
51872;SDS011;52863;52.504;13.480;2022-08-05T15:34:02;5.10;;;3.37;;
51872;SDS011;52863;52.504;13.480;2022-08-05T15:36:58;3.90;;;3.40;;
51872;SDS011;52863;52.504;13.480;2022-08-05T15:39:53;6.17;;;3.90;;
51872;SDS011;52863;52.504;13.480;2022-08-05T15:43:06;5.10;;;3.70;;
51872;SDS011;52863;52.504;13.480;2022-08-05T15:46:31;7.07;;;3.60;;
51872;SDS011;52863;52.504;13.480;2022-08-05T15:49:06;5.27;;;3.77;;
51872;SDS011;52863;52.504;13.480;2022-08-05T15:52:05;5.03;;;3.30;;
51872;SDS011;52863;52.504;13.480;2022-08-05T15:55:08;5.17;;;3.60;;
51872;SDS011;52863;52.504;13.480;2022-08-05T15:58:11;4.87;;;3.63;;
51872;SDS011;52863;52.504;13.480;2022-08-05T16:04:39;4.97;;;3.47;;
51872;SDS011;52863;52.504;13.480;2022-08-05T16:28:59;4.50;;;4.10;;
51872;SDS011;52863;52.504;13.480;2022-08-05T16:32:09;7.80;;;3.93;;
51872;SDS011;52863;52.504;13.480;2022-08-05T16:35:18;6.43;;;3.80;;
51872;SDS011;52863;52.504;13.480;2022-08-05T16:38:18;5.73;;;3.97;;
51872;SDS011;52863;52.504;13.480;2022-08-05T16:53:08;5.93;;;4.40;;
51872;SDS011;52863;52.504;13.480;2022-08-05T16:54:48;6.13;;;4.63;;
51872;SDS011;52863;52.504;13.480;2022-08-05T16:57:17;8.50;;;4.90;;
51872;SDS011;52863;52.504;13.480;2022-08-05T17:00:18;5.40;;;4.40;;
51872;SDS011;52863;52.504;13.480;2022-08-05T17:03:02;6.93;;;4.43;;
51872;SDS011;52863;52.504;13.480;2022-08-05T17:12:48;5.83;;;3.53;;
51872;SDS011;52863;52.504;13.480;2022-08-05T17:15:56;7.43;;;3.20;;
51872;SDS011;52863;52.504;13.480;2022-08-05T17:18:49;5.20;;;3.50;;
51872;SDS011;52863;52.504;13.480;2022-08-05T17:21:48;4.63;;;3.20;;
51872;SDS011;52863;52.504;13.480;2022-08-05T17:24:58;5.43;;;3.40;;
51872;SDS011;52863;52.504;13.480;2022-08-05T17:28:10;4.83;;;3.00;;
51872;SDS011;52863;52.504;13.480;2022-08-05T17:33:06;2.80;;;2.60;;
51872;SDS011;52863;52.504;13.480;2022-08-05T17:34:49;2.33;;;2.13;;
51872;SDS011;52863;52.504;13.480;2022-08-05T17:38:15;4.27;;;1.70;;
51872;SDS011;52863;52.504;13.480;2022-08-05T17:41:20;3.50;;;1.60;;
51872;SDS011;52863;52.504;13.480;2022-08-05T17:44:08;5.77;;;1.63;;
51872;SDS011;52863;52.504;13.480;2022-08-05T17:47:11;4.57;;;1.40;;
51872;SDS011;52863;52.504;13.480;2022-08-05T17:50:39;1.60;;;1.50;;
51872;SDS011;52863;52.504;13.480;2022-08-05T17:54:40;3.10;;;1.30;;
51872;SDS011;52863;52.504;13.480;2022-08-05T18:59:25;2.23;;;1.10;;
51872;SDS011;52863;52.504;13.480;2022-08-05T19:03:27;2.53;;;0.77;;
51872;SDS011;52863;52.504;13.480;2022-08-05T19:10:46;0.70;;;0.70;;
51872;SDS011;52863;52.504;13.480;2022-08-05T23:36:09;1.43;;;1.30;;
51872;SDS011;52863;52.504;13.480;2022-08-05T23:38:45;2.27;;;1.30;;
51872;SDS011;52863;52.504;13.480;2022-08-05T23:42:05;1.40;;;1.30;;
51872;SDS011;52863;52.504;13.480;2022-08-05T23:45:27;1.60;;;1.30;;
51872;SDS011;52863;52.504;13.480;2022-08-05T23:48:26;1.53;;;1.13;;
51872;SDS011;52863;52.504;13.480;2022-08-05T23:55:06;1.73;;;1.00;;
51872;SDS011;52863;52.504;13.480;2022-08-05T23:57:56;2.03;;;1.00;;
